createdAt,value
2019-03-21T00:00:49.537Z,0.00
2019-03-21T00:01:47.894Z,0.00
2019-03-21T00:02:47.890Z,0.00
2019-03-21T00:03:47.878Z,0.00
2019-03-21T00:04:47.870Z,0.00
2019-03-21T00:05:47.850Z,0.00
2019-03-21T00:06:47.846Z,0.00
2019-03-21T00:07:47.830Z,0.00
2019-03-21T00:08:47.822Z,0.00
2019-03-21T00:09:47.808Z,0.00
2019-03-21T00:10:47.806Z,0.00
2019-03-21T00:11:47.795Z,0.00
2019-03-21T00:12:47.776Z,0.00
2019-03-21T00:13:47.768Z,0.00
2019-03-21T00:14:47.756Z,0.00
2019-03-21T00:15:47.745Z,0.00
2019-03-21T00:16:47.735Z,0.00
2019-03-21T00:17:47.723Z,0.00
2019-03-21T00:18:47.710Z,0.00
2019-03-21T00:19:47.714Z,0.00
2019-03-21T00:20:47.700Z,0.00
2019-03-21T00:21:47.692Z,0.00
2019-03-21T00:22:47.670Z,0.00
2019-03-21T00:23:47.666Z,0.00
2019-03-21T00:24:47.646Z,0.00
2019-03-21T00:25:47.636Z,0.00
2019-03-21T00:26:47.645Z,0.00
2019-03-21T00:27:47.616Z,0.00
2019-03-21T00:28:47.602Z,0.00
2019-03-21T00:29:47.606Z,0.00
2019-03-21T00:30:47.585Z,0.00
2019-03-21T00:31:47.591Z,0.00
2019-03-21T00:32:47.559Z,0.00
2019-03-21T00:33:47.557Z,0.00
2019-03-21T00:34:47.545Z,0.00
2019-03-21T00:35:47.533Z,0.00
2019-03-21T00:36:47.530Z,0.00
2019-03-21T00:37:47.508Z,0.00
2019-03-21T00:38:47.502Z,0.00
2019-03-21T00:39:47.488Z,0.00
2019-03-21T00:40:47.481Z,0.00
2019-03-21T00:41:47.468Z,0.00
2019-03-21T00:42:47.459Z,0.00
2019-03-21T00:43:47.457Z,0.00
2019-03-21T00:44:47.437Z,0.00
2019-03-21T00:45:47.427Z,0.00
2019-03-21T00:46:47.425Z,0.00
2019-03-21T00:47:47.411Z,0.00
2019-03-21T00:48:47.397Z,0.00
2019-03-21T00:49:47.382Z,0.00
2019-03-21T00:50:47.368Z,0.00
2019-03-21T00:51:47.361Z,0.00
2019-03-21T00:52:47.352Z,0.00
2019-03-21T00:53:47.337Z,0.00
2019-03-21T00:54:47.326Z,0.00
2019-03-21T00:55:47.315Z,0.00
2019-03-21T00:56:47.307Z,0.00
2019-03-21T00:57:47.298Z,0.00
2019-03-21T00:58:47.292Z,0.00
2019-03-21T00:59:47.314Z,0.00
2019-03-21T01:00:47.277Z,0.00
2019-03-21T01:01:47.329Z,0.00
2019-03-21T01:02:47.242Z,0.00
2019-03-21T01:03:47.243Z,0.00
2019-03-21T01:04:47.220Z,0.00
2019-03-21T01:05:47.217Z,0.00
2019-03-21T01:06:47.203Z,0.00
2019-03-21T01:07:47.190Z,0.00
2019-03-21T01:08:47.184Z,0.00
2019-03-21T01:09:47.169Z,0.00
2019-03-21T01:10:47.158Z,0.00
2019-03-21T01:11:47.144Z,0.00
2019-03-21T01:12:47.144Z,0.00
2019-03-21T01:13:47.121Z,0.00
2019-03-21T01:14:47.116Z,0.00
2019-03-21T01:15:47.106Z,0.00
2019-03-21T01:16:47.093Z,0.00
2019-03-21T01:17:47.087Z,0.00
2019-03-21T01:18:47.085Z,0.00
2019-03-21T01:19:47.071Z,0.00
2019-03-21T01:20:47.056Z,0.00
2019-03-21T01:21:47.046Z,0.00
2019-03-21T01:22:47.030Z,0.00
2019-03-21T01:23:47.018Z,0.00
2019-03-21T01:24:47.011Z,0.00
2019-03-21T01:25:47.010Z,0.00
2019-03-21T01:26:46.982Z,0.00
2019-03-21T01:27:46.974Z,0.00
2019-03-21T01:28:46.963Z,0.00
2019-03-21T01:29:46.953Z,0.00
2019-03-21T01:30:46.943Z,0.00
2019-03-21T01:31:46.936Z,0.00
2019-03-21T01:32:46.926Z,0.00
2019-03-21T01:33:46.909Z,0.00
2019-03-21T01:34:46.900Z,0.00
2019-03-21T01:35:46.892Z,0.00
2019-03-21T01:36:46.889Z,0.00
2019-03-21T01:37:46.876Z,0.00
2019-03-21T01:38:46.862Z,0.00
2019-03-21T01:39:46.847Z,0.00
2019-03-21T01:40:46.835Z,0.00
2019-03-21T01:41:46.828Z,0.00
2019-03-21T01:42:46.811Z,0.00
2019-03-21T01:43:46.817Z,0.00
2019-03-21T01:44:46.788Z,0.00
2019-03-21T01:45:46.777Z,0.00
2019-03-21T01:46:46.765Z,0.00
2019-03-21T01:47:46.759Z,0.00
2019-03-21T01:48:46.753Z,0.00
2019-03-21T01:49:46.757Z,0.00
2019-03-21T01:50:46.725Z,0.00
2019-03-21T01:51:46.717Z,0.00
2019-03-21T01:52:46.716Z,0.00
2019-03-21T01:53:46.700Z,0.00
2019-03-21T01:54:46.687Z,0.00
2019-03-21T01:55:46.672Z,0.00
2019-03-21T01:56:46.661Z,0.00
2019-03-21T01:57:46.655Z,0.00
2019-03-21T01:58:46.648Z,0.00
2019-03-21T01:59:46.636Z,0.00
2019-03-21T02:00:46.616Z,0.00
2019-03-21T02:01:46.608Z,0.00
2019-03-21T02:02:46.603Z,0.00
2019-03-21T02:03:46.594Z,0.00
2019-03-21T02:04:46.575Z,0.00
2019-03-21T02:05:46.578Z,0.00
2019-03-21T02:06:46.562Z,0.00
2019-03-21T02:07:46.547Z,0.00
2019-03-21T02:08:46.536Z,0.00
2019-03-21T02:09:46.540Z,0.00
2019-03-21T02:10:46.513Z,0.00
2019-03-21T02:11:46.518Z,0.00
2019-03-21T02:12:46.491Z,0.00
2019-03-21T02:13:46.489Z,0.00
2019-03-21T02:14:52.002Z,0.00
2019-03-21T02:15:47.467Z,0.00
2019-03-21T02:16:46.457Z,0.00
2019-03-21T02:17:46.448Z,0.00
2019-03-21T02:18:46.425Z,0.00
2019-03-21T02:19:46.420Z,0.00
2019-03-21T02:20:46.406Z,0.00
2019-03-21T02:21:46.396Z,0.00
2019-03-21T02:22:46.397Z,0.00
2019-03-21T02:23:46.373Z,0.00
2019-03-21T02:24:46.363Z,0.00
2019-03-21T02:25:46.350Z,0.00
2019-03-21T02:26:46.344Z,0.00
2019-03-21T02:27:46.331Z,0.00
2019-03-21T02:28:46.328Z,0.00
2019-03-21T02:29:46.310Z,0.00
2019-03-21T02:30:46.299Z,0.00
2019-03-21T02:31:46.289Z,0.00
2019-03-21T02:32:46.280Z,0.00
2019-03-21T02:33:46.279Z,0.00
2019-03-21T02:34:46.285Z,0.00
2019-03-21T02:35:46.246Z,0.00
2019-03-21T02:36:46.239Z,0.00
2019-03-21T02:37:46.224Z,0.00
2019-03-21T02:38:46.227Z,0.00
2019-03-21T02:39:58.634Z,0.00
2019-03-21T02:40:47.196Z,0.00
2019-03-21T02:41:46.179Z,0.00
2019-03-21T02:42:46.175Z,0.00
2019-03-21T02:43:46.166Z,0.00
2019-03-21T02:44:46.250Z,0.00
2019-03-21T02:45:46.149Z,0.00
2019-03-21T02:46:46.127Z,0.00
2019-03-21T02:47:46.115Z,0.00
2019-03-21T02:48:46.106Z,0.00
2019-03-21T02:49:46.089Z,0.00
2019-03-21T02:50:46.100Z,0.00
2019-03-21T02:51:46.086Z,0.00
2019-03-21T02:52:46.061Z,0.00
2019-03-21T02:53:46.053Z,0.00
2019-03-21T02:54:46.049Z,0.00
2019-03-21T02:55:46.038Z,0.00
2019-03-21T02:56:46.021Z,0.00
2019-03-21T02:57:46.014Z,0.00
2019-03-21T02:58:46.005Z,0.00
2019-03-21T02:59:45.991Z,0.00
2019-03-21T03:00:45.988Z,0.00
2019-03-21T03:01:45.968Z,0.00
2019-03-21T03:02:45.962Z,0.00
2019-03-21T03:03:45.945Z,0.00
2019-03-21T03:04:45.938Z,0.00
2019-03-21T03:05:45.925Z,0.00
2019-03-21T03:06:45.924Z,0.00
2019-03-21T03:07:45.909Z,0.00
2019-03-21T03:08:45.896Z,0.00
2019-03-21T03:09:45.877Z,0.00
2019-03-21T03:10:45.865Z,0.00
2019-03-21T03:11:45.859Z,0.00
2019-03-21T03:12:45.846Z,0.00
2019-03-21T03:13:45.847Z,0.00
2019-03-21T03:14:45.829Z,0.00
2019-03-21T03:15:45.823Z,0.00
2019-03-21T03:16:45.807Z,0.00
2019-03-21T03:17:45.801Z,0.00
2019-03-21T03:18:45.785Z,0.00
2019-03-21T03:19:45.776Z,0.00
2019-03-21T03:20:45.761Z,0.00
2019-03-21T03:21:45.752Z,0.00
2019-03-21T03:22:45.737Z,0.00
2019-03-21T03:23:45.722Z,0.00
2019-03-21T03:24:45.722Z,0.00
2019-03-21T03:25:45.705Z,0.00
2019-03-21T03:26:45.699Z,0.00
2019-03-21T03:27:45.687Z,0.00
2019-03-21T03:28:45.679Z,0.00
2019-03-21T03:29:45.666Z,0.00
2019-03-21T03:30:45.654Z,0.00
2019-03-21T03:31:45.671Z,0.00
2019-03-21T03:32:45.629Z,0.00
2019-03-21T03:33:45.635Z,0.00
2019-03-21T03:34:45.645Z,0.00
2019-03-21T03:35:45.601Z,0.00
2019-03-21T03:36:45.587Z,0.00
2019-03-21T03:37:45.579Z,0.00
2019-03-21T03:38:45.586Z,0.00
2019-03-21T03:39:45.561Z,0.00
2019-03-21T03:40:45.546Z,0.00
2019-03-21T03:41:45.530Z,0.00
2019-03-21T03:42:45.515Z,0.00
2019-03-21T03:43:45.518Z,0.00
2019-03-21T03:44:45.501Z,0.00
2019-03-21T03:45:45.486Z,0.00
2019-03-21T03:46:45.488Z,0.00
2019-03-21T03:47:45.470Z,0.00
2019-03-21T03:48:45.466Z,0.00
2019-03-21T03:49:45.455Z,0.00
2019-03-21T03:50:45.436Z,0.00
2019-03-21T03:51:45.431Z,0.00
2019-03-21T03:52:45.414Z,0.00
2019-03-21T03:53:45.408Z,0.00
2019-03-21T03:54:45.403Z,0.00
2019-03-21T03:55:45.381Z,0.00
2019-03-21T03:56:45.375Z,0.00
2019-03-21T03:57:45.369Z,0.00
2019-03-21T03:58:45.354Z,0.00
2019-03-21T03:59:45.338Z,0.00
2019-03-21T04:00:45.333Z,0.00
2019-03-21T04:01:45.325Z,0.00
2019-03-21T04:02:45.302Z,0.00
2019-03-21T04:03:45.296Z,0.00
2019-03-21T04:04:45.289Z,0.00
2019-03-21T04:05:45.284Z,0.00
2019-03-21T04:06:45.269Z,0.00
2019-03-21T04:07:45.256Z,0.00
2019-03-21T04:08:45.256Z,0.00
2019-03-21T04:09:45.237Z,0.00
2019-03-21T04:10:45.232Z,0.00
2019-03-21T04:11:45.218Z,0.00
2019-03-21T04:12:45.208Z,0.00
2019-03-21T04:13:45.194Z,0.00
2019-03-21T04:14:45.176Z,0.00
2019-03-21T04:15:52.472Z,0.00
2019-03-21T04:16:46.159Z,0.00
2019-03-21T04:17:45.150Z,0.00
2019-03-21T04:18:45.149Z,0.00
2019-03-21T04:19:45.128Z,0.00
2019-03-21T04:20:45.178Z,0.00
2019-03-21T04:21:45.122Z,0.00
2019-03-21T04:22:45.091Z,0.00
2019-03-21T04:23:45.083Z,0.00
2019-03-21T04:24:45.074Z,0.00
2019-03-21T04:25:45.062Z,0.00
2019-03-21T04:26:45.057Z,0.00
2019-03-21T04:27:45.048Z,0.00
2019-03-21T04:28:45.031Z,0.00
2019-03-21T04:29:45.034Z,0.00
2019-03-21T04:30:45.011Z,0.00
2019-03-21T04:31:44.997Z,0.00
2019-03-21T04:32:44.994Z,0.00
2019-03-21T04:33:44.978Z,0.00
2019-03-21T04:34:44.965Z,0.00
2019-03-21T04:35:44.953Z,0.00
2019-03-21T04:36:44.941Z,0.00
2019-03-21T04:37:44.934Z,0.00
2019-03-21T04:38:44.945Z,0.00
2019-03-21T04:39:44.910Z,0.00
2019-03-21T04:40:44.894Z,0.00
2019-03-21T04:41:44.902Z,0.00
2019-03-21T04:42:44.879Z,0.00
2019-03-21T04:43:44.863Z,0.00
2019-03-21T04:44:44.862Z,0.00
2019-03-21T04:45:44.846Z,0.00
2019-03-21T04:46:44.838Z,0.00
2019-03-21T04:47:44.840Z,0.00
2019-03-21T04:48:44.820Z,0.00
2019-03-21T04:49:44.809Z,0.00
2019-03-21T04:50:44.809Z,0.00
2019-03-21T04:51:44.780Z,0.00
2019-03-21T04:52:44.774Z,0.00
2019-03-21T04:53:44.764Z,0.00
2019-03-21T04:54:44.748Z,0.00
2019-03-21T04:55:44.741Z,0.00
2019-03-21T04:56:44.726Z,0.00
2019-03-21T04:57:44.717Z,0.00
2019-03-21T04:58:44.711Z,0.00
2019-03-21T04:59:44.703Z,0.00
2019-03-21T05:00:44.684Z,0.00
2019-03-21T05:01:44.680Z,0.00
2019-03-21T05:02:44.661Z,0.00
2019-03-21T05:03:44.655Z,0.00
2019-03-21T05:04:44.645Z,0.00
2019-03-21T05:05:44.630Z,0.00
2019-03-21T05:06:44.624Z,0.00
2019-03-21T05:07:44.614Z,0.00
2019-03-21T05:08:44.597Z,0.00
2019-03-21T05:09:44.588Z,0.00
2019-03-21T05:10:44.589Z,0.00
2019-03-21T05:11:44.591Z,0.00
2019-03-21T05:12:44.567Z,0.00
2019-03-21T05:13:44.542Z,0.00
2019-03-21T05:14:44.537Z,0.00
2019-03-21T05:15:44.518Z,0.00
2019-03-21T05:16:44.524Z,0.00
2019-03-21T05:17:44.502Z,0.00
2019-03-21T05:18:44.499Z,0.00
2019-03-21T05:19:44.479Z,0.00
2019-03-21T05:20:44.469Z,0.00
2019-03-21T05:21:44.460Z,0.00
2019-03-21T05:22:44.451Z,0.00
2019-03-21T05:23:44.461Z,0.00
2019-03-21T05:24:44.439Z,0.00
2019-03-21T05:25:44.415Z,0.00
2019-03-21T05:26:44.412Z,0.00
2019-03-21T05:27:44.393Z,0.00
2019-03-21T05:28:44.389Z,0.00
2019-03-21T05:29:44.384Z,0.00
2019-03-21T05:30:44.369Z,5.62
2019-03-21T05:31:44.387Z,5.62
2019-03-21T05:32:44.358Z,5.62
2019-03-21T05:33:44.329Z,5.62
2019-03-21T05:34:44.318Z,5.62
2019-03-21T05:35:44.313Z,5.62
2019-03-21T05:36:44.306Z,5.62
2019-03-21T05:37:44.289Z,5.62
2019-03-21T05:38:44.275Z,5.62
2019-03-21T05:39:44.275Z,5.62
2019-03-21T05:40:44.261Z,5.62
2019-03-21T05:41:44.257Z,5.62
2019-03-21T05:42:44.233Z,5.62
2019-03-21T05:43:44.223Z,5.62
2019-03-21T05:44:44.213Z,5.62
2019-03-21T05:45:44.209Z,5.62
2019-03-21T05:46:44.190Z,5.62
2019-03-21T05:47:44.180Z,5.62
2019-03-21T05:48:44.171Z,11.25
2019-03-21T05:49:44.158Z,11.25
2019-03-21T05:50:44.148Z,11.25
2019-03-21T05:51:44.141Z,11.25
2019-03-21T05:52:44.130Z,11.25
2019-03-21T05:53:44.114Z,11.25
2019-03-21T05:54:44.105Z,11.25
2019-03-21T05:55:44.099Z,11.25
2019-03-21T05:56:44.103Z,11.25
2019-03-21T05:57:44.083Z,11.25
2019-03-21T05:58:44.071Z,11.25
2019-03-21T05:59:44.092Z,11.25
2019-03-21T06:00:44.039Z,11.25
2019-03-21T06:01:44.030Z,11.25
2019-03-21T06:02:44.021Z,11.25
2019-03-21T06:03:44.021Z,16.88
2019-03-21T06:04:43.998Z,16.88
2019-03-21T06:05:44.260Z,16.88
2019-03-21T06:06:43.981Z,16.88
2019-03-21T06:07:43.966Z,16.88
2019-03-21T06:08:43.950Z,16.88
2019-03-21T06:09:43.948Z,16.88
2019-03-21T06:10:43.942Z,16.88
2019-03-21T06:11:43.926Z,16.88
2019-03-21T06:12:43.922Z,16.88
2019-03-21T06:13:43.917Z,16.88
2019-03-21T06:14:43.896Z,22.50
2019-03-21T06:15:43.892Z,22.50
2019-03-21T06:16:43.871Z,22.50
2019-03-21T06:17:43.864Z,22.50
2019-03-21T06:18:43.852Z,22.50
2019-03-21T06:19:43.837Z,22.50
2019-03-21T06:20:43.837Z,22.50
2019-03-21T06:21:43.874Z,16.88
2019-03-21T06:22:43.805Z,22.50
2019-03-21T06:23:43.790Z,22.50
2019-03-21T06:24:43.783Z,22.50
2019-03-21T06:25:43.771Z,22.50
2019-03-21T06:26:43.774Z,22.50
2019-03-21T06:27:43.755Z,28.12
2019-03-21T06:28:43.743Z,28.12
2019-03-21T06:29:43.732Z,28.12
2019-03-21T06:30:43.736Z,28.12
2019-03-21T06:31:43.712Z,28.12
2019-03-21T06:32:43.704Z,28.12
2019-03-21T06:33:43.689Z,28.12
2019-03-21T06:34:43.675Z,28.12
2019-03-21T06:35:43.664Z,28.12
2019-03-21T06:36:43.664Z,28.12
2019-03-21T06:37:43.659Z,28.12
2019-03-21T06:38:43.648Z,28.12
2019-03-21T06:39:43.625Z,33.75
2019-03-21T06:40:43.611Z,33.75
2019-03-21T06:41:43.604Z,33.75
2019-03-21T06:42:43.593Z,33.75
2019-03-21T06:43:43.593Z,33.75
2019-03-21T06:44:43.572Z,39.38
2019-03-21T06:45:47.995Z,39.38
2019-03-21T06:46:49.311Z,39.38
2019-03-21T06:47:44.544Z,33.75
2019-03-21T06:48:43.531Z,33.75
2019-03-21T06:49:43.516Z,33.75
2019-03-21T06:50:43.511Z,28.12
2019-03-21T06:51:43.495Z,28.12
2019-03-21T06:52:43.482Z,28.12
2019-03-21T06:53:43.473Z,28.12
2019-03-21T06:54:43.464Z,28.12
2019-03-21T06:55:43.449Z,33.75
2019-03-21T06:56:43.437Z,33.75
2019-03-21T06:57:43.433Z,33.75
2019-03-21T06:58:43.423Z,33.75
2019-03-21T06:59:43.418Z,33.75
2019-03-21T07:00:43.408Z,33.75
2019-03-21T07:01:43.382Z,33.75
2019-03-21T07:02:43.372Z,33.75
2019-03-21T07:03:43.362Z,33.75
2019-03-21T07:04:43.369Z,33.75
2019-03-21T07:05:43.349Z,33.75
2019-03-21T07:06:43.337Z,33.75
2019-03-21T07:07:43.318Z,33.75
2019-03-21T07:08:43.306Z,33.75
2019-03-21T07:09:43.298Z,33.75
2019-03-21T07:10:43.296Z,33.75
2019-03-21T07:11:43.293Z,33.75
2019-03-21T07:12:43.277Z,33.75
2019-03-21T07:13:43.264Z,33.75
2019-03-21T07:14:43.249Z,33.75
2019-03-21T07:15:43.232Z,33.75
2019-03-21T07:16:43.223Z,39.38
2019-03-21T07:17:43.216Z,39.38
2019-03-21T07:18:43.211Z,39.38
2019-03-21T07:19:43.196Z,39.38
2019-03-21T07:20:43.183Z,39.38
2019-03-21T07:21:43.192Z,39.38
2019-03-21T07:22:43.162Z,39.38
2019-03-21T07:23:43.158Z,39.38
2019-03-21T07:24:43.134Z,39.38
2019-03-21T07:25:43.133Z,39.38
2019-03-21T07:26:43.123Z,39.38
2019-03-21T07:27:43.106Z,45.00
2019-03-21T07:28:43.103Z,45.00
2019-03-21T07:29:43.079Z,39.38
2019-03-21T07:30:43.078Z,45.00
2019-03-21T07:31:43.058Z,45.00
2019-03-21T07:32:43.055Z,45.00
2019-03-21T07:33:43.036Z,45.00
2019-03-21T07:34:43.041Z,45.00
2019-03-21T07:35:43.019Z,45.00
2019-03-21T07:36:43.008Z,45.00
2019-03-21T07:37:42.996Z,45.00
2019-03-21T07:38:42.985Z,45.00
2019-03-21T07:39:42.987Z,50.62
2019-03-21T07:40:42.971Z,50.62
2019-03-21T07:41:42.962Z,50.62
2019-03-21T07:42:42.942Z,45.00
2019-03-21T07:43:42.929Z,45.00
2019-03-21T07:44:42.918Z,50.62
2019-03-21T07:45:42.924Z,50.62
2019-03-21T07:46:42.898Z,50.62
2019-03-21T07:47:42.888Z,50.62
2019-03-21T07:48:42.882Z,50.62
2019-03-21T07:49:42.875Z,50.62
2019-03-21T07:50:42.853Z,50.62
2019-03-21T07:51:45.086Z,50.62
2019-03-21T07:52:42.833Z,50.62
2019-03-21T07:53:42.820Z,56.25
2019-03-21T07:54:42.808Z,56.25
2019-03-21T07:55:42.799Z,56.25
2019-03-21T07:56:42.802Z,56.25
2019-03-21T07:57:42.777Z,56.25
2019-03-21T07:58:42.767Z,56.25
2019-03-21T07:59:42.755Z,61.88
2019-03-21T08:00:42.743Z,61.88
2019-03-21T08:01:42.732Z,56.25
2019-03-21T08:02:42.722Z,56.25
2019-03-21T08:03:42.713Z,61.88
2019-03-21T08:04:42.708Z,61.88
2019-03-21T08:05:42.687Z,56.25
2019-03-21T08:06:42.681Z,56.25
2019-03-21T08:07:42.680Z,61.88
2019-03-21T08:08:42.662Z,61.88
2019-03-21T08:09:42.737Z,61.88
2019-03-21T08:10:42.636Z,67.50
2019-03-21T08:11:42.626Z,67.50
2019-03-21T08:12:42.617Z,67.50
2019-03-21T08:13:42.615Z,67.50
2019-03-21T08:14:42.588Z,73.12
2019-03-21T08:15:42.580Z,73.12
2019-03-21T08:16:42.575Z,73.12
2019-03-21T08:17:42.561Z,73.12
2019-03-21T08:18:42.551Z,73.12
2019-03-21T08:19:42.540Z,67.50
2019-03-21T08:20:42.530Z,67.50
2019-03-21T08:21:42.516Z,67.50
2019-03-21T08:22:42.509Z,67.50
2019-03-21T08:23:42.509Z,61.88
2019-03-21T08:24:42.491Z,61.88
2019-03-21T08:25:42.483Z,61.88
2019-03-21T08:26:42.468Z,67.50
2019-03-21T08:27:42.451Z,67.50
2019-03-21T08:28:42.441Z,73.12
2019-03-21T08:29:42.432Z,73.12
2019-03-21T08:30:42.430Z,73.12
2019-03-21T08:31:42.410Z,78.75
2019-03-21T08:32:42.396Z,78.75
2019-03-21T08:33:42.384Z,78.75
2019-03-21T08:34:42.387Z,84.38
2019-03-21T08:35:42.365Z,84.38
2019-03-21T08:36:42.358Z,78.75
2019-03-21T08:37:42.344Z,78.75
2019-03-21T08:38:42.339Z,78.75
2019-03-21T08:39:42.324Z,78.75
2019-03-21T08:40:42.718Z,78.75
2019-03-21T08:41:42.314Z,78.75
2019-03-21T08:42:42.297Z,78.75
2019-03-21T08:43:42.271Z,78.75
2019-03-21T08:44:42.260Z,84.38
2019-03-21T08:45:42.260Z,84.38
2019-03-21T08:46:42.271Z,84.38
2019-03-21T08:47:42.235Z,84.38
2019-03-21T08:48:42.217Z,84.38
2019-03-21T08:49:42.208Z,90.00
2019-03-21T08:50:42.194Z,90.00
2019-03-21T08:51:42.194Z,95.62
2019-03-21T08:52:42.170Z,95.62
2019-03-21T08:53:42.165Z,95.62
2019-03-21T08:54:42.150Z,95.62
2019-03-21T08:55:42.140Z,95.62
2019-03-21T08:56:42.135Z,95.62
2019-03-21T08:57:42.116Z,95.62
2019-03-21T08:58:42.107Z,95.62
2019-03-21T08:59:42.092Z,95.62
2019-03-21T09:00:42.083Z,95.62
2019-03-21T09:01:42.075Z,95.62
2019-03-21T09:02:42.059Z,101.25
2019-03-21T09:03:42.059Z,101.25
2019-03-21T09:04:42.048Z,101.25
2019-03-21T09:05:42.031Z,106.88
2019-03-21T09:06:42.024Z,106.88
2019-03-21T09:07:42.009Z,106.88
2019-03-21T09:08:41.996Z,101.25
2019-03-21T09:09:41.985Z,106.88
2019-03-21T09:10:41.989Z,106.88
2019-03-21T09:11:41.966Z,112.50
2019-03-21T09:12:42.803Z,112.50
2019-03-21T09:13:41.942Z,112.50
2019-03-21T09:14:41.936Z,112.50
2019-03-21T09:15:41.925Z,112.50
2019-03-21T09:16:41.902Z,112.50
2019-03-21T09:17:41.891Z,118.12
2019-03-21T09:18:41.879Z,118.12
2019-03-21T09:19:41.869Z,118.12
2019-03-21T09:20:41.877Z,112.50
2019-03-21T09:21:41.854Z,112.50
2019-03-21T09:22:41.842Z,112.50
2019-03-21T09:23:41.830Z,112.50
2019-03-21T09:24:41.824Z,112.50
2019-03-21T09:25:41.807Z,112.50
2019-03-21T09:26:41.791Z,118.12
2019-03-21T09:27:41.776Z,118.12
2019-03-21T09:28:41.779Z,118.12
2019-03-21T09:29:52.848Z,118.12
2019-03-21T09:30:42.751Z,112.50
2019-03-21T09:31:41.739Z,106.88
2019-03-21T09:32:41.736Z,106.88
2019-03-21T09:33:41.721Z,106.88
2019-03-21T09:34:41.710Z,106.88
2019-03-21T09:35:41.708Z,106.88
2019-03-21T09:36:41.698Z,106.88
2019-03-21T09:37:41.679Z,101.25
2019-03-21T09:38:41.667Z,101.25
2019-03-21T09:39:41.657Z,101.25
2019-03-21T09:40:41.646Z,95.62
2019-03-21T09:41:41.632Z,95.62
2019-03-21T09:42:41.628Z,95.62
2019-03-21T09:43:41.618Z,90.00
2019-03-21T09:44:41.605Z,90.00
2019-03-21T09:45:41.582Z,90.00
2019-03-21T09:46:50.538Z,95.62
2019-03-21T09:47:42.570Z,101.25
2019-03-21T09:48:41.557Z,101.25
2019-03-21T09:49:41.545Z,106.88
2019-03-21T09:50:41.537Z,106.88
2019-03-21T09:51:41.526Z,106.88
2019-03-21T09:52:41.514Z,106.88
2019-03-21T09:53:41.508Z,101.25
2019-03-21T09:54:41.493Z,101.25
2019-03-21T09:55:41.484Z,101.25
2019-03-21T09:56:41.473Z,101.25
2019-03-21T09:57:41.464Z,101.25
2019-03-21T09:58:41.448Z,101.25
2019-03-21T09:59:41.443Z,95.62
2019-03-21T10:00:41.424Z,95.62
2019-03-21T10:01:41.413Z,95.62
2019-03-21T10:02:41.404Z,95.62
2019-03-21T10:03:41.393Z,101.25
2019-03-21T10:04:41.380Z,101.25
2019-03-21T10:05:41.375Z,106.88
2019-03-21T10:06:41.361Z,112.50
2019-03-21T10:07:41.351Z,112.50
2019-03-21T10:08:41.339Z,112.50
2019-03-21T10:09:41.338Z,112.50
2019-03-21T10:10:41.317Z,106.88
2019-03-21T10:11:41.311Z,106.88
2019-03-21T10:12:41.298Z,112.50
2019-03-21T10:13:41.284Z,112.50
2019-03-21T10:14:41.273Z,112.50
2019-03-21T10:15:41.259Z,112.50
2019-03-21T10:16:41.265Z,112.50
2019-03-21T10:17:41.240Z,112.50
2019-03-21T10:18:41.229Z,118.12
2019-03-21T10:19:41.230Z,118.12
2019-03-21T10:20:41.212Z,118.12
2019-03-21T10:21:43.673Z,118.12
2019-03-21T10:22:41.192Z,118.12
2019-03-21T10:23:41.197Z,118.12
2019-03-21T10:24:41.165Z,118.12
2019-03-21T10:25:41.154Z,118.12
2019-03-21T10:26:41.141Z,118.12
2019-03-21T10:27:41.138Z,118.12
2019-03-21T10:28:41.123Z,118.12
2019-03-21T10:29:41.106Z,118.12
2019-03-21T10:30:41.104Z,118.12
2019-03-21T10:31:41.087Z,123.75
2019-03-21T10:32:41.071Z,123.75
2019-03-21T10:33:41.063Z,123.75
2019-03-21T10:34:41.053Z,123.75
2019-03-21T10:35:41.049Z,118.12
2019-03-21T10:36:41.032Z,123.75
2019-03-21T10:37:41.024Z,123.75
2019-03-21T10:38:41.017Z,123.75
2019-03-21T10:39:41.009Z,123.75
2019-03-21T10:40:40.986Z,135.00
2019-03-21T10:41:40.987Z,135.00
2019-03-21T10:42:40.971Z,140.62
2019-03-21T10:43:40.951Z,140.62
2019-03-21T10:44:40.952Z,146.25
2019-03-21T10:45:40.945Z,146.25
2019-03-21T10:46:40.928Z,146.25
2019-03-21T10:47:40.912Z,140.62
2019-03-21T10:48:40.912Z,140.62
2019-03-21T10:49:40.898Z,135.00
2019-03-21T10:50:40.883Z,129.38
2019-03-21T10:51:40.875Z,123.75
2019-03-21T10:52:40.867Z,123.75
2019-03-21T10:53:40.850Z,118.12
2019-03-21T10:54:40.841Z,118.12
2019-03-21T10:55:40.879Z,118.12
2019-03-21T10:56:40.821Z,123.75
2019-03-21T10:58:50.892Z,118.12
2019-03-21T10:59:50.863Z,118.12
2019-03-21T11:01:21.625Z,118.12
2019-03-21T11:02:21.602Z,118.12
2019-03-21T11:03:52.361Z,112.50
2019-03-21T11:04:52.351Z,118.12
2019-03-21T11:06:23.099Z,118.12
2019-03-21T11:07:23.090Z,118.12
2019-03-21T11:08:53.751Z,123.75
2019-03-21T11:09:53.750Z,118.12
2019-03-21T11:11:24.462Z,118.12
2019-03-21T11:12:24.435Z,118.12
2019-03-21T11:13:55.197Z,112.50
2019-03-21T11:14:55.173Z,112.50
2019-03-21T11:16:25.944Z,112.50
2019-03-21T11:17:25.922Z,112.50
2019-03-21T11:18:35.768Z,112.50
2019-03-21T11:19:26.894Z,118.12
2019-03-21T11:20:25.879Z,118.12
2019-03-21T11:21:25.876Z,123.75
2019-03-21T11:22:25.873Z,123.75
2019-03-21T11:23:25.921Z,135.00
2019-03-21T11:24:25.847Z,135.00
2019-03-21T11:25:25.829Z,140.62
2019-03-21T11:26:25.815Z,140.62
2019-03-21T11:27:25.814Z,140.62
2019-03-21T11:28:25.799Z,140.62
2019-03-21T11:29:25.786Z,140.62
2019-03-21T11:30:25.774Z,146.25
2019-03-21T11:31:25.761Z,151.88
2019-03-21T11:32:25.753Z,151.88
2019-03-21T11:33:25.746Z,140.62
2019-03-21T11:34:25.749Z,123.75
2019-03-21T11:35:25.722Z,118.12
2019-03-21T11:36:33.790Z,112.50
2019-03-21T11:37:26.699Z,112.50
2019-03-21T11:38:25.689Z,118.12
2019-03-21T11:39:25.687Z,118.12
2019-03-21T11:40:25.666Z,118.12
2019-03-21T11:41:25.668Z,118.12
2019-03-21T11:42:26.669Z,112.50
2019-03-21T11:43:25.641Z,112.50
2019-03-21T11:44:25.628Z,112.50
2019-03-21T11:45:25.615Z,118.12
2019-03-21T11:46:25.613Z,118.12
2019-03-21T11:47:25.605Z,118.12
2019-03-21T11:48:25.583Z,118.12
2019-03-21T11:49:25.585Z,112.50
2019-03-21T11:50:25.569Z,112.50
2019-03-21T11:51:25.554Z,112.50
2019-03-21T11:52:25.533Z,112.50
2019-03-21T11:53:25.535Z,112.50
2019-03-21T11:54:25.515Z,112.50
2019-03-21T11:55:25.518Z,112.50
2019-03-21T11:56:25.502Z,112.50
2019-03-21T11:57:25.493Z,112.50
2019-03-21T11:58:25.480Z,118.12
2019-03-21T11:59:36.952Z,118.12
2019-03-21T12:00:26.457Z,118.12
2019-03-21T12:01:25.447Z,118.12
2019-03-21T12:02:27.358Z,118.12
2019-03-21T12:03:25.423Z,112.50
2019-03-21T12:04:25.409Z,112.50
2019-03-21T12:05:25.397Z,112.50
2019-03-21T12:06:25.397Z,112.50
2019-03-21T12:07:25.383Z,112.50
2019-03-21T12:08:25.374Z,118.12
2019-03-21T12:09:25.398Z,118.12
2019-03-21T12:10:25.344Z,118.12
2019-03-21T12:11:25.358Z,118.12
2019-03-21T12:12:25.323Z,118.12
2019-03-21T12:13:25.309Z,123.75
2019-03-21T12:14:25.315Z,123.75
2019-03-21T12:15:25.289Z,118.12
2019-03-21T12:16:25.275Z,118.12
2019-03-21T12:17:25.292Z,118.12
2019-03-21T12:18:25.262Z,118.12
2019-03-21T12:19:25.263Z,118.12
2019-03-21T12:20:25.235Z,118.12
2019-03-21T12:21:25.223Z,112.50
2019-03-21T12:22:30.075Z,112.50
2019-03-21T12:23:26.206Z,106.88
2019-03-21T12:24:25.203Z,106.88
2019-03-21T12:25:25.177Z,112.50
2019-03-21T12:26:25.169Z,106.88
2019-03-21T12:27:25.160Z,106.88
2019-03-21T12:28:25.149Z,106.88
2019-03-21T12:29:25.137Z,112.50
2019-03-21T12:30:25.129Z,112.50
2019-03-21T12:31:25.119Z,112.50
2019-03-21T12:32:25.104Z,118.12
2019-03-21T12:33:25.094Z,123.75
2019-03-21T12:34:25.090Z,129.38
2019-03-21T12:35:25.085Z,129.38
2019-03-21T12:36:25.069Z,123.75
2019-03-21T12:37:25.056Z,123.75
2019-03-21T12:38:25.039Z,118.12
2019-03-21T12:39:25.039Z,118.12
2019-03-21T12:40:25.016Z,112.50
2019-03-21T12:41:25.014Z,112.50
2019-03-21T12:42:25.014Z,118.12
2019-03-21T12:43:24.981Z,118.12
2019-03-21T12:44:24.972Z,118.12
2019-03-21T12:45:24.973Z,118.12
2019-03-21T12:46:24.948Z,118.12
2019-03-21T12:47:31.013Z,123.75
2019-03-21T12:48:25.927Z,123.75
2019-03-21T12:49:24.929Z,118.12
2019-03-21T12:50:24.909Z,118.12
2019-03-21T12:51:24.905Z,118.12
2019-03-21T12:52:24.892Z,118.12
2019-03-21T12:53:24.884Z,118.12
2019-03-21T12:54:24.861Z,118.12
2019-03-21T12:55:24.853Z,118.12
2019-03-21T12:56:24.841Z,112.50
2019-03-21T12:57:24.834Z,112.50
2019-03-21T12:58:24.827Z,112.50
2019-03-21T12:59:24.812Z,118.12
2019-03-21T13:00:24.852Z,118.12
2019-03-21T13:01:24.793Z,118.12